sensor_id;sensor_type;location;lat;lon;timestamp;temperature;humidity
770;DHT22;368;48.698;9.116;2023-09-07T00:01:12;14.10;99.90
770;DHT22;368;48.698;9.116;2023-09-07T00:03:39;13.70;99.90
770;DHT22;368;48.698;9.116;2023-09-07T00:06:08;14.00;99.90
770;DHT22;368;48.698;9.116;2023-09-07T00:08:35;14.00;99.90
770;DHT22;368;48.698;9.116;2023-09-07T00:11:05;14.20;99.90
770;DHT22;368;48.698;9.116;2023-09-07T00:13:32;14.20;99.90
770;DHT22;368;48.698;9.116;2023-09-07T00:15:59;14.10;99.90
770;DHT22;368;48.698;9.116;2023-09-07T00:18:26;14.10;99.90
770;DHT22;368;48.698;9.116;2023-09-07T00:20:53;13.90;99.90
770;DHT22;368;48.698;9.116;2023-09-07T00:23:22;14.00;99.90
770;DHT22;368;48.698;9.116;2023-09-07T00:25:49;13.90;99.90
770;DHT22;368;48.698;9.116;2023-09-07T00:28:15;13.90;99.90
770;DHT22;368;48.698;9.116;2023-09-07T00:30:42;14.00;99.90
770;DHT22;368;48.698;9.116;2023-09-07T00:33:09;13.80;99.90
770;DHT22;368;48.698;9.116;2023-09-07T00:35:36;13.70;99.90
770;DHT22;368;48.698;9.116;2023-09-07T00:38:03;13.80;99.90
770;DHT22;368;48.698;9.116;2023-09-07T00:40:31;13.90;99.90
770;DHT22;368;48.698;9.116;2023-09-07T00:42:59;13.90;99.90
770;DHT22;368;48.698;9.116;2023-09-07T00:45:26;14.00;99.90
770;DHT22;368;48.698;9.116;2023-09-07T00:47:53;13.60;99.90
770;DHT22;368;48.698;9.116;2023-09-07T00:50:20;13.60;99.90
770;DHT22;368;48.698;9.116;2023-09-07T00:52:47;13.50;99.90
770;DHT22;368;48.698;9.116;2023-09-07T00:55:14;13.70;99.90
770;DHT22;368;48.698;9.116;2023-09-07T00:57:43;13.50;99.90
770;DHT22;368;48.698;9.116;2023-09-07T01:00:11;13.50;99.90
770;DHT22;368;48.698;9.116;2023-09-07T01:02:38;13.20;99.90
770;DHT22;368;48.698;9.116;2023-09-07T01:05:05;13.40;99.90
770;DHT22;368;48.698;9.116;2023-09-07T01:07:36;13.30;99.90
770;DHT22;368;48.698;9.116;2023-09-07T01:10:04;13.50;99.90
770;DHT22;368;48.698;9.116;2023-09-07T01:12:31;13.30;99.90
770;DHT22;368;48.698;9.116;2023-09-07T01:14:59;13.20;99.90
770;DHT22;368;48.698;9.116;2023-09-07T01:17:28;13.20;99.90
770;DHT22;368;48.698;9.116;2023-09-07T01:19:57;13.40;99.90
770;DHT22;368;48.698;9.116;2023-09-07T01:22:31;13.20;99.90
770;DHT22;368;48.698;9.116;2023-09-07T01:25:00;13.00;99.90
770;DHT22;368;48.698;9.116;2023-09-07T01:27:28;13.10;99.90
770;DHT22;368;48.698;9.116;2023-09-07T01:29:55;13.20;99.90
770;DHT22;368;48.698;9.116;2023-09-07T01:32:22;13.00;99.90
770;DHT22;368;48.698;9.116;2023-09-07T01:34:48;13.00;99.90
770;DHT22;368;48.698;9.116;2023-09-07T01:37:15;13.10;99.90
770;DHT22;368;48.698;9.116;2023-09-07T01:39:43;13.10;99.90
770;DHT22;368;48.698;9.116;2023-09-07T01:42:10;13.20;99.90
770;DHT22;368;48.698;9.116;2023-09-07T01:44:37;13.30;99.90
770;DHT22;368;48.698;9.116;2023-09-07T01:47:04;13.50;99.90
770;DHT22;368;48.698;9.116;2023-09-07T01:49:30;13.30;99.90
770;DHT22;368;48.698;9.116;2023-09-07T01:51:57;13.20;99.90
770;DHT22;368;48.698;9.116;2023-09-07T01:54:24;13.20;99.90
770;DHT22;368;48.698;9.116;2023-09-07T01:56:52;13.00;99.90
770;DHT22;368;48.698;9.116;2023-09-07T01:59:19;13.00;99.90
770;DHT22;368;48.698;9.116;2023-09-07T02:01:46;12.80;99.90
770;DHT22;368;48.698;9.116;2023-09-07T02:04:12;12.90;99.90
770;DHT22;368;48.698;9.116;2023-09-07T02:06:39;12.70;99.90
770;DHT22;368;48.698;9.116;2023-09-07T02:09:06;12.80;99.90
770;DHT22;368;48.698;9.116;2023-09-07T02:11:33;13.00;99.90
770;DHT22;368;48.698;9.116;2023-09-07T02:14:01;13.30;99.90
770;DHT22;368;48.698;9.116;2023-09-07T02:16:28;13.40;99.90
770;DHT22;368;48.698;9.116;2023-09-07T02:19:01;13.30;99.90
770;DHT22;368;48.698;9.116;2023-09-07T02:21:29;13.20;99.90
770;DHT22;368;48.698;9.116;2023-09-07T02:23:56;13.00;99.90
770;DHT22;368;48.698;9.116;2023-09-07T02:26:22;13.10;99.90
770;DHT22;368;48.698;9.116;2023-09-07T02:28:49;13.10;99.90
770;DHT22;368;48.698;9.116;2023-09-07T02:31:17;12.60;99.90
770;DHT22;368;48.698;9.116;2023-09-07T02:33:45;12.70;99.90
770;DHT22;368;48.698;9.116;2023-09-07T02:36:11;12.50;99.90
770;DHT22;368;48.698;9.116;2023-09-07T02:38:38;12.50;99.90
770;DHT22;368;48.698;9.116;2023-09-07T02:41:05;12.60;99.90
770;DHT22;368;48.698;9.116;2023-09-07T02:43:32;12.30;99.90
770;DHT22;368;48.698;9.116;2023-09-07T02:45:58;12.50;99.90
770;DHT22;368;48.698;9.116;2023-09-07T02:48:27;12.80;99.90
770;DHT22;368;48.698;9.116;2023-09-07T02:50:53;12.40;99.90
770;DHT22;368;48.698;9.116;2023-09-07T02:53:23;12.70;99.90
770;DHT22;368;48.698;9.116;2023-09-07T02:55:50;12.80;99.90
770;DHT22;368;48.698;9.116;2023-09-07T02:58:17;12.90;99.90
770;DHT22;368;48.698;9.116;2023-09-07T03:00:44;12.50;99.90
770;DHT22;368;48.698;9.116;2023-09-07T03:03:12;12.40;99.90
770;DHT22;368;48.698;9.116;2023-09-07T03:05:41;12.20;99.90
770;DHT22;368;48.698;9.116;2023-09-07T03:08:09;12.30;99.90
770;DHT22;368;48.698;9.116;2023-09-07T03:10:35;12.30;99.90
770;DHT22;368;48.698;9.116;2023-09-07T03:13:03;12.70;99.90
770;DHT22;368;48.698;9.116;2023-09-07T03:15:30;12.50;99.90
770;DHT22;368;48.698;9.116;2023-09-07T03:17:57;12.70;99.90
770;DHT22;368;48.698;9.116;2023-09-07T03:20:24;12.40;99.90
770;DHT22;368;48.698;9.116;2023-09-07T03:22:52;12.20;99.90
770;DHT22;368;48.698;9.116;2023-09-07T03:25:19;12.00;99.90
770;DHT22;368;48.698;9.116;2023-09-07T03:27:46;12.10;99.90
770;DHT22;368;48.698;9.116;2023-09-07T03:30:13;12.10;99.90
770;DHT22;368;48.698;9.116;2023-09-07T03:32:40;12.00;99.90
770;DHT22;368;48.698;9.116;2023-09-07T03:35:07;11.90;99.90
770;DHT22;368;48.698;9.116;2023-09-07T03:37:35;12.00;99.90
770;DHT22;368;48.698;9.116;2023-09-07T03:40:05;12.10;99.90
770;DHT22;368;48.698;9.116;2023-09-07T03:42:32;11.90;99.90
770;DHT22;368;48.698;9.116;2023-09-07T03:44:59;12.00;99.90
770;DHT22;368;48.698;9.116;2023-09-07T03:47:25;12.20;99.90
770;DHT22;368;48.698;9.116;2023-09-07T03:49:54;12.20;99.90
770;DHT22;368;48.698;9.116;2023-09-07T03:52:21;11.90;99.90
770;DHT22;368;48.698;9.116;2023-09-07T03:54:53;12.00;99.90
770;DHT22;368;48.698;9.116;2023-09-07T03:57:21;12.10;99.90
770;DHT22;368;48.698;9.116;2023-09-07T03:59:48;11.80;99.90
770;DHT22;368;48.698;9.116;2023-09-07T04:02:15;11.80;99.90
770;DHT22;368;48.698;9.116;2023-09-07T04:04:43;11.90;99.90
770;DHT22;368;48.698;9.116;2023-09-07T04:07:10;11.80;99.90
770;DHT22;368;48.698;9.116;2023-09-07T04:09:36;11.90;99.90
770;DHT22;368;48.698;9.116;2023-09-07T04:12:04;11.80;99.90
770;DHT22;368;48.698;9.116;2023-09-07T04:14:33;11.80;99.90
770;DHT22;368;48.698;9.116;2023-09-07T04:17:00;12.00;99.90
770;DHT22;368;48.698;9.116;2023-09-07T04:19:27;11.90;99.90
770;DHT22;368;48.698;9.116;2023-09-07T04:21:54;11.80;99.90
770;DHT22;368;48.698;9.116;2023-09-07T04:24:21;11.70;99.90
770;DHT22;368;48.698;9.116;2023-09-07T04:26:48;11.60;99.90
770;DHT22;368;48.698;9.116;2023-09-07T04:29:15;11.80;99.90
770;DHT22;368;48.698;9.116;2023-09-07T04:31:43;11.60;99.90
770;DHT22;368;48.698;9.116;2023-09-07T04:34:10;11.80;99.90
770;DHT22;368;48.698;9.116;2023-09-07T04:36:37;11.90;99.90
770;DHT22;368;48.698;9.116;2023-09-07T04:39:04;11.80;99.90
770;DHT22;368;48.698;9.116;2023-09-07T04:41:30;11.70;99.90
770;DHT22;368;48.698;9.116;2023-09-07T04:43:57;11.70;99.90
770;DHT22;368;48.698;9.116;2023-09-07T04:46:24;11.60;99.90
770;DHT22;368;48.698;9.116;2023-09-07T04:48:52;11.70;99.90
770;DHT22;368;48.698;9.116;2023-09-07T04:51:19;11.40;99.90
770;DHT22;368;48.698;9.116;2023-09-07T04:53:47;11.70;99.90
770;DHT22;368;48.698;9.116;2023-09-07T04:56:14;11.50;99.90
770;DHT22;368;48.698;9.116;2023-09-07T04:58:41;11.40;99.90
770;DHT22;368;48.698;9.116;2023-09-07T05:01:10;11.70;99.90
770;DHT22;368;48.698;9.116;2023-09-07T05:03:38;11.70;99.90
770;DHT22;368;48.698;9.116;2023-09-07T05:06:07;11.90;99.90
770;DHT22;368;48.698;9.116;2023-09-07T05:08:34;11.80;99.90
770;DHT22;368;48.698;9.116;2023-09-07T05:11:02;11.70;99.90
770;DHT22;368;48.698;9.116;2023-09-07T05:13:29;11.90;99.90
770;DHT22;368;48.698;9.116;2023-09-07T05:15:58;12.00;99.90
770;DHT22;368;48.698;9.116;2023-09-07T05:18:25;12.00;99.90
770;DHT22;368;48.698;9.116;2023-09-07T05:20:52;12.00;99.90
770;DHT22;368;48.698;9.116;2023-09-07T05:23:21;11.90;99.90
770;DHT22;368;48.698;9.116;2023-09-07T05:25:49;12.20;99.90
770;DHT22;368;48.698;9.116;2023-09-07T05:28:18;12.20;99.90
770;DHT22;368;48.698;9.116;2023-09-07T05:30:45;12.10;99.90
770;DHT22;368;48.698;9.116;2023-09-07T05:33:15;12.40;99.90
770;DHT22;368;48.698;9.116;2023-09-07T05:35:42;12.60;99.90
770;DHT22;368;48.698;9.116;2023-09-07T05:38:09;13.00;99.90
770;DHT22;368;48.698;9.116;2023-09-07T05:40:38;13.00;99.90
770;DHT22;368;48.698;9.116;2023-09-07T05:43:05;14.10;99.90
770;DHT22;368;48.698;9.116;2023-09-07T05:45:34;14.60;99.90
770;DHT22;368;48.698;9.116;2023-09-07T05:48:02;14.90;99.90
770;DHT22;368;48.698;9.116;2023-09-07T05:50:29;15.70;99.90
770;DHT22;368;48.698;9.116;2023-09-07T05:52:55;16.30;99.90
770;DHT22;368;48.698;9.116;2023-09-07T05:55:22;16.60;99.90
770;DHT22;368;48.698;9.116;2023-09-07T05:57:50;16.90;99.90
770;DHT22;368;48.698;9.116;2023-09-07T06:00:17;17.70;99.90
770;DHT22;368;48.698;9.116;2023-09-07T06:02:45;18.20;99.90
770;DHT22;368;48.698;9.116;2023-09-07T06:05:12;18.20;99.90
770;DHT22;368;48.698;9.116;2023-09-07T06:07:39;17.90;99.90
770;DHT22;368;48.698;9.116;2023-09-07T06:10:07;17.40;99.90
770;DHT22;368;48.698;9.116;2023-09-07T06:12:34;17.30;99.90
770;DHT22;368;48.698;9.116;2023-09-07T06:15:02;18.40;99.90
770;DHT22;368;48.698;9.116;2023-09-07T06:17:29;18.80;99.90
770;DHT22;368;48.698;9.116;2023-09-07T06:19:56;18.30;99.90
770;DHT22;368;48.698;9.116;2023-09-07T06:22:23;18.20;99.90
770;DHT22;368;48.698;9.116;2023-09-07T06:24:50;18.10;99.90
770;DHT22;368;48.698;9.116;2023-09-07T06:27:17;18.20;99.90
770;DHT22;368;48.698;9.116;2023-09-07T06:29:43;18.00;99.90
770;DHT22;368;48.698;9.116;2023-09-07T06:32:11;18.00;99.90
770;DHT22;368;48.698;9.116;2023-09-07T06:34:38;18.10;99.90
770;DHT22;368;48.698;9.116;2023-09-07T06:37:06;17.80;99.90
770;DHT22;368;48.698;9.116;2023-09-07T06:39:33;17.90;99.90
770;DHT22;368;48.698;9.116;2023-09-07T06:42:00;17.70;99.90
770;DHT22;368;48.698;9.116;2023-09-07T06:44:26;18.10;99.90
770;DHT22;368;48.698;9.116;2023-09-07T06:46:53;18.30;99.90
770;DHT22;368;48.698;9.116;2023-09-07T06:49:21;18.30;99.90
770;DHT22;368;48.698;9.116;2023-09-07T06:51:48;18.50;99.90
770;DHT22;368;48.698;9.116;2023-09-07T06:54:15;18.60;99.90
770;DHT22;368;48.698;9.116;2023-09-07T06:56:42;18.90;99.90
770;DHT22;368;48.698;9.116;2023-09-07T06:59:08;19.00;99.90
770;DHT22;368;48.698;9.116;2023-09-07T07:01:35;18.90;99.90
770;DHT22;368;48.698;9.116;2023-09-07T07:04:02;19.20;99.90
770;DHT22;368;48.698;9.116;2023-09-07T07:06:30;19.20;99.90
770;DHT22;368;48.698;9.116;2023-09-07T07:08:57;19.40;99.90
770;DHT22;368;48.698;9.116;2023-09-07T07:11:24;19.60;99.90
770;DHT22;368;48.698;9.116;2023-09-07T07:13:51;20.20;99.90
770;DHT22;368;48.698;9.116;2023-09-07T07:16:17;20.70;99.90
770;DHT22;368;48.698;9.116;2023-09-07T07:18:44;21.10;99.90
770;DHT22;368;48.698;9.116;2023-09-07T07:21:11;21.00;99.90
770;DHT22;368;48.698;9.116;2023-09-07T07:23:39;21.70;99.90
770;DHT22;368;48.698;9.116;2023-09-07T07:26:06;22.40;99.30
770;DHT22;368;48.698;9.116;2023-09-07T07:28:34;22.50;99.70
770;DHT22;368;48.698;9.116;2023-09-07T07:31:07;23.20;98.70
770;DHT22;368;48.698;9.116;2023-09-07T07:33:34;23.50;97.80
770;DHT22;368;48.698;9.116;2023-09-07T07:36:00;24.00;97.30
770;DHT22;368;48.698;9.116;2023-09-07T07:38:27;24.60;96.20
770;DHT22;368;48.698;9.116;2023-09-07T07:40:55;25.40;94.80
770;DHT22;368;48.698;9.116;2023-09-07T07:43:22;25.00;95.00
770;DHT22;368;48.698;9.116;2023-09-07T07:45:49;25.90;93.80
770;DHT22;368;48.698;9.116;2023-09-07T07:48:16;25.50;91.90
770;DHT22;368;48.698;9.116;2023-09-07T07:50:42;25.50;92.90
770;DHT22;368;48.698;9.116;2023-09-07T07:53:09;25.50;92.70
770;DHT22;368;48.698;9.116;2023-09-07T07:55:36;24.80;92.70
770;DHT22;368;48.698;9.116;2023-09-07T07:58:06;24.00;94.50
770;DHT22;368;48.698;9.116;2023-09-07T08:00:34;23.80;93.80
770;DHT22;368;48.698;9.116;2023-09-07T08:03:01;23.80;94.90
770;DHT22;368;48.698;9.116;2023-09-07T08:05:28;25.60;94.10
770;DHT22;368;48.698;9.116;2023-09-07T08:07:56;27.30;91.50
770;DHT22;368;48.698;9.116;2023-09-07T08:10:23;27.30;90.90
770;DHT22;368;48.698;9.116;2023-09-07T08:12:53;27.50;89.80
770;DHT22;368;48.698;9.116;2023-09-07T08:15:23;26.90;90.60
770;DHT22;368;48.698;9.116;2023-09-07T08:17:50;27.30;90.80
770;DHT22;368;48.698;9.116;2023-09-07T08:20:17;27.20;88.80
770;DHT22;368;48.698;9.116;2023-09-07T08:22:44;26.40;92.10
770;DHT22;368;48.698;9.116;2023-09-07T08:25:11;27.70;90.60
770;DHT22;368;48.698;9.116;2023-09-07T08:27:38;28.70;87.40
770;DHT22;368;48.698;9.116;2023-09-07T08:30:11;28.90;84.70
770;DHT22;368;48.698;9.116;2023-09-07T08:32:39;29.30;84.90
770;DHT22;368;48.698;9.116;2023-09-07T08:35:08;27.90;83.30
770;DHT22;368;48.698;9.116;2023-09-07T08:37:34;27.60;87.00
770;DHT22;368;48.698;9.116;2023-09-07T08:40:01;28.90;85.40
770;DHT22;368;48.698;9.116;2023-09-07T08:42:30;29.80;82.10
770;DHT22;368;48.698;9.116;2023-09-07T08:44:59;29.80;81.80
770;DHT22;368;48.698;9.116;2023-09-07T08:47:28;29.40;82.10
770;DHT22;368;48.698;9.116;2023-09-07T08:49:58;28.30;82.50
770;DHT22;368;48.698;9.116;2023-09-07T08:52:26;28.80;83.90
770;DHT22;368;48.698;9.116;2023-09-07T08:54:54;30.10;79.90
770;DHT22;368;48.698;9.116;2023-09-07T08:57:24;29.50;80.80
770;DHT22;368;48.698;9.116;2023-09-07T08:59:53;28.70;79.90
770;DHT22;368;48.698;9.116;2023-09-07T09:02:20;27.70;83.30
770;DHT22;368;48.698;9.116;2023-09-07T09:04:47;28.30;81.20
770;DHT22;368;48.698;9.116;2023-09-07T09:07:15;29.70;82.90
770;DHT22;368;48.698;9.116;2023-09-07T09:09:42;30.00;81.50
770;DHT22;368;48.698;9.116;2023-09-07T09:12:10;31.30;76.00
770;DHT22;368;48.698;9.116;2023-09-07T09:14:38;30.80;77.70
770;DHT22;368;48.698;9.116;2023-09-07T09:17:05;30.50;75.50
770;DHT22;368;48.698;9.116;2023-09-07T09:19:33;31.50;75.20
770;DHT22;368;48.698;9.116;2023-09-07T09:22:00;31.60;75.50
770;DHT22;368;48.698;9.116;2023-09-07T09:24:31;32.00;74.00
770;DHT22;368;48.698;9.116;2023-09-07T09:26:58;31.40;73.70
770;DHT22;368;48.698;9.116;2023-09-07T09:29:25;31.60;73.50
770;DHT22;368;48.698;9.116;2023-09-07T09:31:53;32.00;74.30
770;DHT22;368;48.698;9.116;2023-09-07T09:34:20;32.10;71.90
770;DHT22;368;48.698;9.116;2023-09-07T09:36:47;31.80;73.80
770;DHT22;368;48.698;9.116;2023-09-07T09:39:23;32.80;72.10
770;DHT22;368;48.698;9.116;2023-09-07T09:41:52;33.00;69.40
770;DHT22;368;48.698;9.116;2023-09-07T09:44:21;32.80;70.20
770;DHT22;368;48.698;9.116;2023-09-07T09:46:51;33.00;68.10
770;DHT22;368;48.698;9.116;2023-09-07T09:49:20;32.10;68.70
770;DHT22;368;48.698;9.116;2023-09-07T09:51:48;32.10;71.30
770;DHT22;368;48.698;9.116;2023-09-07T09:54:16;31.00;73.10
770;DHT22;368;48.698;9.116;2023-09-07T09:56:43;32.00;71.30
770;DHT22;368;48.698;9.116;2023-09-07T09:59:12;32.30;71.50
770;DHT22;368;48.698;9.116;2023-09-07T10:01:43;30.40;75.50
770;DHT22;368;48.698;9.116;2023-09-07T10:04:11;31.40;74.60
770;DHT22;368;48.698;9.116;2023-09-07T10:06:49;32.40;71.60
770;DHT22;368;48.698;9.116;2023-09-07T10:09:16;32.20;69.60
770;DHT22;368;48.698;9.116;2023-09-07T10:11:51;32.30;70.50
770;DHT22;368;48.698;9.116;2023-09-07T10:14:20;34.10;66.90
770;DHT22;368;48.698;9.116;2023-09-07T10:16:48;34.90;64.70
770;DHT22;368;48.698;9.116;2023-09-07T10:19:17;34.10;63.20
770;DHT22;368;48.698;9.116;2023-09-07T10:21:45;33.00;68.10
770;DHT22;368;48.698;9.116;2023-09-07T10:24:12;32.10;66.60
770;DHT22;368;48.698;9.116;2023-09-07T10:26:56;32.70;68.50
770;DHT22;368;48.698;9.116;2023-09-07T10:29:25;31.00;69.10
770;DHT22;368;48.698;9.116;2023-09-07T10:31:51;31.80;72.50
770;DHT22;368;48.698;9.116;2023-09-07T10:34:18;33.60;66.40
770;DHT22;368;48.698;9.116;2023-09-07T10:36:46;34.20;64.80
770;DHT22;368;48.698;9.116;2023-09-07T10:39:13;33.50;66.20
770;DHT22;368;48.698;9.116;2023-09-07T10:41:40;34.20;64.90
770;DHT22;368;48.698;9.116;2023-09-07T10:44:08;33.60;64.60
770;DHT22;368;48.698;9.116;2023-09-07T10:46:37;32.20;69.40
770;DHT22;368;48.698;9.116;2023-09-07T10:49:07;31.20;71.30
770;DHT22;368;48.698;9.116;2023-09-07T10:51:41;32.00;70.60
770;DHT22;368;48.698;9.116;2023-09-07T10:54:16;32.40;70.40
770;DHT22;368;48.698;9.116;2023-09-07T10:56:44;32.90;69.80
770;DHT22;368;48.698;9.116;2023-09-07T10:59:13;33.60;66.90
770;DHT22;368;48.698;9.116;2023-09-07T11:01:41;34.30;64.20
770;DHT22;368;48.698;9.116;2023-09-07T11:04:08;33.50;67.40
770;DHT22;368;48.698;9.116;2023-09-07T11:06:36;34.40;64.50
770;DHT22;368;48.698;9.116;2023-09-07T11:09:04;34.20;65.20
770;DHT22;368;48.698;9.116;2023-09-07T11:11:34;35.50;63.20
770;DHT22;368;48.698;9.116;2023-09-07T11:14:02;35.60;60.50
770;DHT22;368;48.698;9.116;2023-09-07T11:16:30;34.20;64.60
770;DHT22;368;48.698;9.116;2023-09-07T11:19:02;33.80;65.70
770;DHT22;368;48.698;9.116;2023-09-07T11:21:30;33.40;65.30
770;DHT22;368;48.698;9.116;2023-09-07T11:23:58;32.00;67.40
770;DHT22;368;48.698;9.116;2023-09-07T11:26:25;33.60;66.80
770;DHT22;368;48.698;9.116;2023-09-07T11:28:51;35.30;64.50
770;DHT22;368;48.698;9.116;2023-09-07T11:31:19;35.80;62.50
770;DHT22;368;48.698;9.116;2023-09-07T11:33:47;33.50;64.50
770;DHT22;368;48.698;9.116;2023-09-07T11:36:16;32.90;67.30
770;DHT22;368;48.698;9.116;2023-09-07T11:38:43;35.00;64.20
770;DHT22;368;48.698;9.116;2023-09-07T11:41:11;33.40;66.10
770;DHT22;368;48.698;9.116;2023-09-07T11:43:38;34.20;64.00
770;DHT22;368;48.698;9.116;2023-09-07T11:46:05;34.90;64.30
770;DHT22;368;48.698;9.116;2023-09-07T11:48:32;35.10;62.00
770;DHT22;368;48.698;9.116;2023-09-07T11:50:59;35.40;62.80
770;DHT22;368;48.698;9.116;2023-09-07T11:53:27;36.40;59.50
770;DHT22;368;48.698;9.116;2023-09-07T11:55:56;34.80;62.60
770;DHT22;368;48.698;9.116;2023-09-07T11:58:23;35.30;63.30
770;DHT22;368;48.698;9.116;2023-09-07T12:00:52;35.40;61.20
770;DHT22;368;48.698;9.116;2023-09-07T12:03:19;35.40;59.80
770;DHT22;368;48.698;9.116;2023-09-07T12:05:45;32.10;64.20
770;DHT22;368;48.698;9.116;2023-09-07T12:08:12;34.30;63.20
770;DHT22;368;48.698;9.116;2023-09-07T12:10:41;34.80;60.30
770;DHT22;368;48.698;9.116;2023-09-07T12:13:08;35.60;60.20
770;DHT22;368;48.698;9.116;2023-09-07T12:15:34;34.50;63.50
770;DHT22;368;48.698;9.116;2023-09-07T12:18:01;35.30;60.10
770;DHT22;368;48.698;9.116;2023-09-07T12:20:28;35.60;60.90
770;DHT22;368;48.698;9.116;2023-09-07T12:22:55;35.30;61.20
770;DHT22;368;48.698;9.116;2023-09-07T12:25:22;36.10;58.90
770;DHT22;368;48.698;9.116;2023-09-07T12:27:50;34.70;60.20
770;DHT22;368;48.698;9.116;2023-09-07T12:30:18;35.60;58.90
770;DHT22;368;48.698;9.116;2023-09-07T12:32:46;36.40;57.20
770;DHT22;368;48.698;9.116;2023-09-07T12:35:13;35.90;57.80
770;DHT22;368;48.698;9.116;2023-09-07T12:37:40;35.60;58.00
770;DHT22;368;48.698;9.116;2023-09-07T12:40:08;34.90;59.70
770;DHT22;368;48.698;9.116;2023-09-07T12:42:38;34.30;59.40
770;DHT22;368;48.698;9.116;2023-09-07T12:45:08;34.80;59.80
770;DHT22;368;48.698;9.116;2023-09-07T12:47:36;33.30;62.10
770;DHT22;368;48.698;9.116;2023-09-07T12:50:03;33.60;63.10
770;DHT22;368;48.698;9.116;2023-09-07T12:52:30;34.80;60.10
770;DHT22;368;48.698;9.116;2023-09-07T12:54:57;35.30;58.70
770;DHT22;368;48.698;9.116;2023-09-07T12:57:24;36.40;57.40
770;DHT22;368;48.698;9.116;2023-09-07T12:59:50;37.30;54.20
770;DHT22;368;48.698;9.116;2023-09-07T13:02:18;36.50;56.40
770;DHT22;368;48.698;9.116;2023-09-07T13:04:45;35.80;57.80
770;DHT22;368;48.698;9.116;2023-09-07T13:07:12;35.40;59.40
770;DHT22;368;48.698;9.116;2023-09-07T13:09:39;36.30;57.10
770;DHT22;368;48.698;9.116;2023-09-07T13:12:06;34.70;59.60
770;DHT22;368;48.698;9.116;2023-09-07T13:14:33;34.30;62.40
770;DHT22;368;48.698;9.116;2023-09-07T13:17:00;35.20;59.20
770;DHT22;368;48.698;9.116;2023-09-07T13:19:28;35.90;59.70
770;DHT22;368;48.698;9.116;2023-09-07T13:21:55;37.00;56.60
770;DHT22;368;48.698;9.116;2023-09-07T13:24:22;34.80;59.40
770;DHT22;368;48.698;9.116;2023-09-07T13:26:50;35.10;60.20
770;DHT22;368;48.698;9.116;2023-09-07T13:29:17;36.20;57.20
770;DHT22;368;48.698;9.116;2023-09-07T13:31:44;36.30;56.00
770;DHT22;368;48.698;9.116;2023-09-07T13:34:11;36.10;58.30
770;DHT22;368;48.698;9.116;2023-09-07T13:36:39;36.70;57.10
770;DHT22;368;48.698;9.116;2023-09-07T13:39:06;35.70;57.10
770;DHT22;368;48.698;9.116;2023-09-07T13:41:32;36.60;57.40
770;DHT22;368;48.698;9.116;2023-09-07T13:43:59;36.30;57.10
770;DHT22;368;48.698;9.116;2023-09-07T13:46:26;36.00;55.80
770;DHT22;368;48.698;9.116;2023-09-07T13:48:53;36.90;56.70
770;DHT22;368;48.698;9.116;2023-09-07T13:51:20;36.30;57.90
770;DHT22;368;48.698;9.116;2023-09-07T13:53:48;35.30;60.10
770;DHT22;368;48.698;9.116;2023-09-07T13:56:15;34.90;59.90
770;DHT22;368;48.698;9.116;2023-09-07T13:58:42;34.90;59.00
770;DHT22;368;48.698;9.116;2023-09-07T14:01:09;36.90;56.10
770;DHT22;368;48.698;9.116;2023-09-07T14:03:35;37.50;56.30
770;DHT22;368;48.698;9.116;2023-09-07T14:06:03;36.90;56.70
770;DHT22;368;48.698;9.116;2023-09-07T14:08:30;36.40;57.60
770;DHT22;368;48.698;9.116;2023-09-07T14:11:00;35.70;57.60
770;DHT22;368;48.698;9.116;2023-09-07T14:13:26;36.50;56.90
770;DHT22;368;48.698;9.116;2023-09-07T14:15:53;34.90;58.90
770;DHT22;368;48.698;9.116;2023-09-07T14:18:20;35.80;57.40
770;DHT22;368;48.698;9.116;2023-09-07T14:20:47;36.00;56.90
770;DHT22;368;48.698;9.116;2023-09-07T14:23:13;34.80;57.70
770;DHT22;368;48.698;9.116;2023-09-07T14:25:40;35.20;58.20
770;DHT22;368;48.698;9.116;2023-09-07T14:28:11;35.70;57.30
770;DHT22;368;48.698;9.116;2023-09-07T14:30:38;35.50;58.40
770;DHT22;368;48.698;9.116;2023-09-07T14:33:05;36.20;56.50
770;DHT22;368;48.698;9.116;2023-09-07T14:35:32;36.50;55.60
770;DHT22;368;48.698;9.116;2023-09-07T14:37:58;35.60;58.10
770;DHT22;368;48.698;9.116;2023-09-07T14:40:26;34.60;60.30
770;DHT22;368;48.698;9.116;2023-09-07T14:42:52;35.30;57.00
770;DHT22;368;48.698;9.116;2023-09-07T14:45:24;36.20;56.00
770;DHT22;368;48.698;9.116;2023-09-07T14:47:51;35.90;55.30
770;DHT22;368;48.698;9.116;2023-09-07T14:50:18;36.40;55.30
770;DHT22;368;48.698;9.116;2023-09-07T14:52:45;36.40;55.90
770;DHT22;368;48.698;9.116;2023-09-07T14:55:13;34.90;57.90
770;DHT22;368;48.698;9.116;2023-09-07T14:57:39;35.30;57.50
770;DHT22;368;48.698;9.116;2023-09-07T15:00:08;35.30;56.40
770;DHT22;368;48.698;9.116;2023-09-07T15:02:36;36.20;56.10
770;DHT22;368;48.698;9.116;2023-09-07T15:05:03;35.80;57.70
770;DHT22;368;48.698;9.116;2023-09-07T15:07:30;35.90;55.10
770;DHT22;368;48.698;9.116;2023-09-07T15:09:57;36.30;55.40
770;DHT22;368;48.698;9.116;2023-09-07T15:12:24;36.30;53.60
770;DHT22;368;48.698;9.116;2023-09-07T15:14:51;35.40;56.40
770;DHT22;368;48.698;9.116;2023-09-07T15:17:18;35.30;56.90
770;DHT22;368;48.698;9.116;2023-09-07T15:19:46;36.10;56.20
770;DHT22;368;48.698;9.116;2023-09-07T15:22:13;35.80;56.30
770;DHT22;368;48.698;9.116;2023-09-07T15:24:40;35.40;57.10
770;DHT22;368;48.698;9.116;2023-09-07T15:27:08;35.50;57.90
770;DHT22;368;48.698;9.116;2023-09-07T15:29:35;35.00;57.90
770;DHT22;368;48.698;9.116;2023-09-07T15:32:02;34.50;57.10
770;DHT22;368;48.698;9.116;2023-09-07T15:34:29;32.90;59.70
770;DHT22;368;48.698;9.116;2023-09-07T15:36:57;31.50;64.20
770;DHT22;368;48.698;9.116;2023-09-07T15:39:24;30.40;70.20
770;DHT22;368;48.698;9.116;2023-09-07T15:41:51;29.80;69.00
770;DHT22;368;48.698;9.116;2023-09-07T15:44:19;29.20;71.80
770;DHT22;368;48.698;9.116;2023-09-07T15:46:48;28.60;72.70
770;DHT22;368;48.698;9.116;2023-09-07T15:49:16;28.50;73.70
770;DHT22;368;48.698;9.116;2023-09-07T15:51:43;28.40;75.00
770;DHT22;368;48.698;9.116;2023-09-07T15:54:11;28.10;75.90
770;DHT22;368;48.698;9.116;2023-09-07T15:56:38;28.10;75.20
770;DHT22;368;48.698;9.116;2023-09-07T15:59:05;28.20;75.70
770;DHT22;368;48.698;9.116;2023-09-07T16:01:32;28.40;74.90
770;DHT22;368;48.698;9.116;2023-09-07T16:03:59;28.40;74.80
770;DHT22;368;48.698;9.116;2023-09-07T16:06:26;28.40;75.40
770;DHT22;368;48.698;9.116;2023-09-07T16:08:52;28.30;75.00
770;DHT22;368;48.698;9.116;2023-09-07T16:11:20;28.00;76.40
770;DHT22;368;48.698;9.116;2023-09-07T16:13:47;27.60;76.30
770;DHT22;368;48.698;9.116;2023-09-07T16:16:14;27.40;76.40
770;DHT22;368;48.698;9.116;2023-09-07T16:18:41;27.30;80.00
770;DHT22;368;48.698;9.116;2023-09-07T16:21:07;27.10;79.60
770;DHT22;368;48.698;9.116;2023-09-07T16:23:41;26.90;80.70
770;DHT22;368;48.698;9.116;2023-09-07T16:26:08;26.90;81.20
770;DHT22;368;48.698;9.116;2023-09-07T16:28:36;26.70;80.40
770;DHT22;368;48.698;9.116;2023-09-07T16:31:03;26.60;81.30
770;DHT22;368;48.698;9.116;2023-09-07T16:33:30;26.40;82.90
770;DHT22;368;48.698;9.116;2023-09-07T16:35:56;26.30;82.20